sensor_id;sensor_type;location;lat;lon;timestamp;pressure;altitude;pressure_sealevel;temperature;humidity
73415;BME280;61633;53.742;-2.990;2022-08-25T00:00:54;101914.28;;;20.75;43.59
73415;BME280;61633;53.742;-2.990;2022-08-25T00:03:19;101911.39;;;20.95;42.54
73415;BME280;61633;53.742;-2.990;2022-08-25T00:05:45;101921.60;;;20.11;44.19
73415;BME280;61633;53.742;-2.990;2022-08-25T00:08:10;101919.93;;;21.07;42.84
73415;BME280;61633;53.742;-2.990;2022-08-25T00:10:37;101917.80;;;20.91;43.71
73415;BME280;61633;53.742;-2.990;2022-08-25T00:13:01;101920.38;;;21.49;42.17
73415;BME280;61633;53.742;-2.990;2022-08-25T00:15:27;101924.83;;;20.89;42.68
73415;BME280;61633;53.742;-2.990;2022-08-25T00:17:52;101922.62;;;20.76;43.97
73415;BME280;61633;53.742;-2.990;2022-08-25T00:20:18;101913.99;;;20.82;42.91
73415;BME280;61633;53.742;-2.990;2022-08-25T00:22:43;101908.48;;;21.21;42.91
73415;BME280;61633;53.742;-2.990;2022-08-25T00:25:09;101915.27;;;20.75;44.45
73415;BME280;61633;53.742;-2.990;2022-08-25T00:27:35;101917.64;;;20.92;43.89
73415;BME280;61633;53.742;-2.990;2022-08-25T00:30:00;101911.92;;;20.41;44.44
73415;BME280;61633;53.742;-2.990;2022-08-25T00:32:25;101916.71;;;20.18;43.73
73415;BME280;61633;53.742;-2.990;2022-08-25T00:34:50;101922.37;;;20.36;43.66
73415;BME280;61633;53.742;-2.990;2022-08-25T00:37:16;101924.47;;;20.64;43.27
73415;BME280;61633;53.742;-2.990;2022-08-25T00:39:41;101921.05;;;20.93;43.24
73415;BME280;61633;53.742;-2.990;2022-08-25T00:42:08;101928.32;;;20.27;43.62
73415;BME280;61633;53.742;-2.990;2022-08-25T00:44:32;101927.87;;;20.58;42.77
73415;BME280;61633;53.742;-2.990;2022-08-25T00:47:00;101929.50;;;20.76;42.39
73415;BME280;61633;53.742;-2.990;2022-08-25T00:49:28;101928.23;;;20.19;42.58
73415;BME280;61633;53.742;-2.990;2022-08-25T00:51:51;101925.80;;;20.28;41.80
73415;BME280;61633;53.742;-2.990;2022-08-25T00:54:17;101917.65;;;20.29;42.01
73415;BME280;61633;53.742;-2.990;2022-08-25T00:56:40;101914.31;;;19.81;43.06
73415;BME280;61633;53.742;-2.990;2022-08-25T00:59:06;101916.94;;;20.97;41.69
73415;BME280;61633;53.742;-2.990;2022-08-25T01:01:31;101916.00;;;20.27;42.33
73415;BME280;61633;53.742;-2.990;2022-08-25T01:03:56;101919.49;;;19.55;43.18
73415;BME280;61633;53.742;-2.990;2022-08-25T01:06:23;101925.20;;;20.29;42.85
73415;BME280;61633;53.742;-2.990;2022-08-25T01:08:47;101924.72;;;20.74;41.57
73415;BME280;61633;53.742;-2.990;2022-08-25T01:11:12;101924.94;;;20.67;42.32
73415;BME280;61633;53.742;-2.990;2022-08-25T01:13:42;101919.99;;;21.10;42.07
73415;BME280;61633;53.742;-2.990;2022-08-25T01:16:04;101918.38;;;20.17;43.05
73415;BME280;61633;53.742;-2.990;2022-08-25T01:20:55;101922.13;;;19.95;43.15
73415;BME280;61633;53.742;-2.990;2022-08-25T01:23:21;101916.84;;;19.90;43.72
73415;BME280;61633;53.742;-2.990;2022-08-25T01:25:50;101912.66;;;20.00;43.43
73415;BME280;61633;53.742;-2.990;2022-08-25T01:28:11;101916.22;;;20.01;43.47
73415;BME280;61633;53.742;-2.990;2022-08-25T01:30:36;101916.55;;;19.76;44.39
73415;BME280;61633;53.742;-2.990;2022-08-25T01:33:03;101920.51;;;19.73;44.87
73415;BME280;61633;53.742;-2.990;2022-08-25T01:35:27;101924.92;;;19.10;45.07
73415;BME280;61633;53.742;-2.990;2022-08-25T01:37:52;101918.68;;;19.72;43.98
73415;BME280;61633;53.742;-2.990;2022-08-25T01:40:18;101918.57;;;20.27;43.92
73415;BME280;61633;53.742;-2.990;2022-08-25T01:42:52;101920.24;;;19.46;45.06
73415;BME280;61633;53.742;-2.990;2022-08-25T01:45:09;101912.26;;;20.27;44.18
73415;BME280;61633;53.742;-2.990;2022-08-25T01:47:36;101914.29;;;20.33;44.17
73415;BME280;61633;53.742;-2.990;2022-08-25T01:50:00;101912.34;;;20.12;44.04
73415;BME280;61633;53.742;-2.990;2022-08-25T01:52:28;101919.53;;;18.95;45.83
73415;BME280;61633;53.742;-2.990;2022-08-25T01:54:51;101921.72;;;19.87;44.52
73415;BME280;61633;53.742;-2.990;2022-08-25T01:57:17;101923.70;;;20.04;44.84
73415;BME280;61633;53.742;-2.990;2022-08-25T01:59:42;101921.33;;;19.60;45.28
73415;BME280;61633;53.742;-2.990;2022-08-25T02:02:08;101925.96;;;19.89;45.17
73415;BME280;61633;53.742;-2.990;2022-08-25T02:04:33;101924.45;;;20.02;44.35
73415;BME280;61633;53.742;-2.990;2022-08-25T02:06:59;101928.01;;;19.98;44.16
73415;BME280;61633;53.742;-2.990;2022-08-25T02:09:24;101923.10;;;20.31;45.08
73415;BME280;61633;53.742;-2.990;2022-08-25T02:11:50;101919.20;;;20.09;44.44
73415;BME280;61633;53.742;-2.990;2022-08-25T02:14:16;101923.18;;;20.07;44.31
73415;BME280;61633;53.742;-2.990;2022-08-25T02:16:43;101924.65;;;20.23;44.31
73415;BME280;61633;53.742;-2.990;2022-08-25T02:19:08;101930.23;;;20.05;44.05
73415;BME280;61633;53.742;-2.990;2022-08-25T02:21:32;101931.13;;;20.28;43.59
73415;BME280;61633;53.742;-2.990;2022-08-25T02:23:57;101927.37;;;20.10;44.58
73415;BME280;61633;53.742;-2.990;2022-08-25T02:26:23;101927.17;;;20.04;44.22
73415;BME280;61633;53.742;-2.990;2022-08-25T02:28:49;101927.79;;;20.43;44.37
73415;BME280;61633;53.742;-2.990;2022-08-25T02:31:15;101926.83;;;19.96;44.44
73415;BME280;61633;53.742;-2.990;2022-08-25T02:33:39;101921.37;;;20.43;43.78
73415;BME280;61633;53.742;-2.990;2022-08-25T02:36:05;101921.06;;;19.84;44.13
73415;BME280;61633;53.742;-2.990;2022-08-25T02:38:30;101929.05;;;20.01;43.97
73415;BME280;61633;53.742;-2.990;2022-08-25T02:40:56;101938.09;;;19.95;44.68
73415;BME280;61633;53.742;-2.990;2022-08-25T02:43:21;101934.06;;;19.80;44.95
73415;BME280;61633;53.742;-2.990;2022-08-25T02:45:46;101932.45;;;20.16;44.36
73415;BME280;61633;53.742;-2.990;2022-08-25T02:48:12;101933.80;;;19.84;44.26
73415;BME280;61633;53.742;-2.990;2022-08-25T02:50:37;101944.55;;;19.53;45.08
73415;BME280;61633;53.742;-2.990;2022-08-25T02:53:03;101939.88;;;19.59;45.04
73415;BME280;61633;53.742;-2.990;2022-08-25T02:55:28;101935.33;;;19.76;44.74
73415;BME280;61633;53.742;-2.990;2022-08-25T02:57:54;101942.05;;;19.80;44.62
73415;BME280;61633;53.742;-2.990;2022-08-25T03:00:19;101944.32;;;19.74;44.65
73415;BME280;61633;53.742;-2.990;2022-08-25T03:02:45;101940.94;;;19.54;44.62
73415;BME280;61633;53.742;-2.990;2022-08-25T03:05:11;101934.66;;;19.50;44.82
73415;BME280;61633;53.742;-2.990;2022-08-25T03:07:36;101933.63;;;19.50;45.10
73415;BME280;61633;53.742;-2.990;2022-08-25T03:10:09;101937.50;;;19.71;44.84
73415;BME280;61633;53.742;-2.990;2022-08-25T03:12:27;101941.95;;;18.49;45.88
73415;BME280;61633;53.742;-2.990;2022-08-25T03:14:52;101942.63;;;19.11;45.69
73415;BME280;61633;53.742;-2.990;2022-08-25T03:17:17;101939.97;;;19.08;45.31
73415;BME280;61633;53.742;-2.990;2022-08-25T03:19:43;101943.38;;;19.05;45.20
73415;BME280;61633;53.742;-2.990;2022-08-25T03:22:08;101942.54;;;19.56;44.79
73415;BME280;61633;53.742;-2.990;2022-08-25T03:24:34;101941.04;;;19.42;44.90
73415;BME280;61633;53.742;-2.990;2022-08-25T03:26:59;101942.47;;;19.16;45.98
73415;BME280;61633;53.742;-2.990;2022-08-25T03:29:30;101941.34;;;19.38;45.91
73415;BME280;61633;53.742;-2.990;2022-08-25T03:31:52;101935.68;;;19.44;45.24
73415;BME280;61633;53.742;-2.990;2022-08-25T03:34:17;101927.26;;;19.00;45.78
73415;BME280;61633;53.742;-2.990;2022-08-25T03:36:42;101926.49;;;18.38;46.94
73415;BME280;61633;53.742;-2.990;2022-08-25T03:39:07;101924.45;;;19.28;45.80
73415;BME280;61633;53.742;-2.990;2022-08-25T03:41:33;101916.58;;;19.73;44.71
73415;BME280;61633;53.742;-2.990;2022-08-25T03:43:58;101916.93;;;19.52;45.06
73415;BME280;61633;53.742;-2.990;2022-08-25T03:46:26;101921.94;;;19.46;45.43
73415;BME280;61633;53.742;-2.990;2022-08-25T03:48:50;101923.58;;;19.38;45.46
73415;BME280;61633;53.742;-2.990;2022-08-25T03:51:19;101920.94;;;19.30;45.46
73415;BME280;61633;53.742;-2.990;2022-08-25T03:53:39;101915.55;;;19.32;46.14
73415;BME280;61633;53.742;-2.990;2022-08-25T03:56:05;101909.68;;;19.66;45.32
73415;BME280;61633;53.742;-2.990;2022-08-25T03:58:30;101906.52;;;19.70;45.41
73415;BME280;61633;53.742;-2.990;2022-08-25T04:00:56;101901.85;;;20.15;45.29
73415;BME280;61633;53.742;-2.990;2022-08-25T04:03:22;101899.82;;;19.48;46.18
73415;BME280;61633;53.742;-2.990;2022-08-25T04:05:47;101900.41;;;18.46;47.13
73415;BME280;61633;53.742;-2.990;2022-08-25T04:08:12;101897.48;;;19.27;46.16
73415;BME280;61633;53.742;-2.990;2022-08-25T04:10:38;101893.78;;;19.06;46.46
73415;BME280;61633;53.742;-2.990;2022-08-25T04:13:03;101890.34;;;19.46;45.95
73415;BME280;61633;53.742;-2.990;2022-08-25T04:15:29;101892.57;;;19.66;45.59
73415;BME280;61633;53.742;-2.990;2022-08-25T04:17:55;101894.02;;;19.02;46.04
73415;BME280;61633;53.742;-2.990;2022-08-25T04:20:20;101893.91;;;19.31;46.15
73415;BME280;61633;53.742;-2.990;2022-08-25T04:22:45;101890.36;;;19.20;45.76
73415;BME280;61633;53.742;-2.990;2022-08-25T04:25:11;101884.16;;;19.21;45.75
73415;BME280;61633;53.742;-2.990;2022-08-25T04:27:36;101884.23;;;19.70;45.70
73415;BME280;61633;53.742;-2.990;2022-08-25T04:30:02;101889.63;;;19.35;45.16
73415;BME280;61633;53.742;-2.990;2022-08-25T04:32:27;101888.01;;;18.78;46.19
73415;BME280;61633;53.742;-2.990;2022-08-25T04:34:53;101884.91;;;18.90;46.07
73415;BME280;61633;53.742;-2.990;2022-08-25T04:37:18;101885.68;;;19.10;46.01
73415;BME280;61633;53.742;-2.990;2022-08-25T04:39:44;101882.75;;;18.95;45.83
73415;BME280;61633;53.742;-2.990;2022-08-25T04:42:09;101880.49;;;19.39;45.56
73415;BME280;61633;53.742;-2.990;2022-08-25T04:44:35;101880.58;;;19.07;46.03
73415;BME280;61633;53.742;-2.990;2022-08-25T04:47:00;101878.47;;;19.34;45.38
73415;BME280;61633;53.742;-2.990;2022-08-25T04:49:27;101883.26;;;18.41;47.25
73415;BME280;61633;53.742;-2.990;2022-08-25T04:51:51;101891.04;;;18.45;47.07
73415;BME280;61633;53.742;-2.990;2022-08-25T04:54:17;101889.11;;;17.79;48.66
73415;BME280;61633;53.742;-2.990;2022-08-25T04:56:43;101891.48;;;17.85;48.17
73415;BME280;61633;53.742;-2.990;2022-08-25T04:59:10;101890.63;;;17.74;48.94
73415;BME280;61633;53.742;-2.990;2022-08-25T05:01:34;101891.74;;;18.08;48.11
73415;BME280;61633;53.742;-2.990;2022-08-25T05:04:01;101893.40;;;18.27;47.07
73415;BME280;61633;53.742;-2.990;2022-08-25T05:06:26;101895.82;;;18.67;47.34
73415;BME280;61633;53.742;-2.990;2022-08-25T05:08:50;101894.46;;;18.63;47.62
73415;BME280;61633;53.742;-2.990;2022-08-25T05:11:16;101887.58;;;17.66;49.18
73415;BME280;61633;53.742;-2.990;2022-08-25T05:13:41;101896.10;;;17.63;49.29
73415;BME280;61633;53.742;-2.990;2022-08-25T05:16:07;101895.77;;;17.48;49.25
73415;BME280;61633;53.742;-2.990;2022-08-25T05:18:33;101893.68;;;17.90;47.83
73415;BME280;61633;53.742;-2.990;2022-08-25T05:21:01;101895.86;;;18.73;47.22
73415;BME280;61633;53.742;-2.990;2022-08-25T05:23:24;101894.34;;;17.81;48.15
73415;BME280;61633;53.742;-2.990;2022-08-25T05:25:50;101893.76;;;17.87;48.16
73415;BME280;61633;53.742;-2.990;2022-08-25T05:28:15;101884.21;;;17.69;49.30
73415;BME280;61633;53.742;-2.990;2022-08-25T05:30:41;101877.49;;;17.74;48.95
73415;BME280;61633;53.742;-2.990;2022-08-25T05:33:05;101874.67;;;17.75;48.94
73415;BME280;61633;53.742;-2.990;2022-08-25T05:35:31;101876.50;;;17.64;48.76
73415;BME280;61633;53.742;-2.990;2022-08-25T05:37:56;101880.08;;;18.27;48.15
73415;BME280;61633;53.742;-2.990;2022-08-25T05:40:22;101882.19;;;18.03;48.29
73415;BME280;61633;53.742;-2.990;2022-08-25T05:42:47;101881.50;;;16.74;50.63
73415;BME280;61633;53.742;-2.990;2022-08-25T05:45:13;101872.17;;;17.53;48.22
73415;BME280;61633;53.742;-2.990;2022-08-25T05:47:38;101874.09;;;17.45;49.14
73415;BME280;61633;53.742;-2.990;2022-08-25T05:50:05;101886.43;;;17.85;48.40
73415;BME280;61633;53.742;-2.990;2022-08-25T05:52:29;101895.35;;;18.05;48.30
73415;BME280;61633;53.742;-2.990;2022-08-25T05:54:55;101893.47;;;18.33;47.94
73415;BME280;61633;53.742;-2.990;2022-08-25T05:57:21;101888.47;;;18.30;47.78
73415;BME280;61633;53.742;-2.990;2022-08-25T05:59:46;101883.95;;;17.44;49.41
73415;BME280;61633;53.742;-2.990;2022-08-25T06:02:11;101888.84;;;17.96;48.42
73415;BME280;61633;53.742;-2.990;2022-08-25T06:04:37;101894.04;;;18.59;47.27
73415;BME280;61633;53.742;-2.990;2022-08-25T06:07:03;101894.71;;;17.93;48.48
73415;BME280;61633;53.742;-2.990;2022-08-25T06:09:29;101889.81;;;17.39;49.55
73415;BME280;61633;53.742;-2.990;2022-08-25T06:11:54;101890.30;;;18.29;48.37
73415;BME280;61633;53.742;-2.990;2022-08-25T06:14:19;101895.45;;;18.51;47.54
73415;BME280;61633;53.742;-2.990;2022-08-25T06:16:45;101894.80;;;17.14;49.90
73415;BME280;61633;53.742;-2.990;2022-08-25T06:19:10;101896.92;;;18.84;47.77
73415;BME280;61633;53.742;-2.990;2022-08-25T06:21:36;101902.22;;;18.06;48.48
73415;BME280;61633;53.742;-2.990;2022-08-25T06:24:02;101909.37;;;18.64;47.44
73415;BME280;61633;53.742;-2.990;2022-08-25T06:26:27;101913.20;;;18.56;47.03
73415;BME280;61633;53.742;-2.990;2022-08-25T06:28:53;101914.59;;;18.91;47.40
73415;BME280;61633;53.742;-2.990;2022-08-25T06:31:18;101915.50;;;18.44;46.81
73415;BME280;61633;53.742;-2.990;2022-08-25T06:33:44;101912.50;;;19.01;46.98
73415;BME280;61633;53.742;-2.990;2022-08-25T06:36:09;101910.11;;;18.50;47.63
73415;BME280;61633;53.742;-2.990;2022-08-25T06:38:35;101912.43;;;18.59;47.25
73415;BME280;61633;53.742;-2.990;2022-08-25T06:41:02;101909.32;;;18.61;48.02
73415;BME280;61633;53.742;-2.990;2022-08-25T06:43:26;101906.07;;;18.98;46.68
73415;BME280;61633;53.742;-2.990;2022-08-25T06:45:51;101913.34;;;19.00;47.06
73415;BME280;61633;53.742;-2.990;2022-08-25T06:48:17;101920.24;;;18.65;47.41
73415;BME280;61633;53.742;-2.990;2022-08-25T06:50:43;101922.18;;;18.35;47.49
73415;BME280;61633;53.742;-2.990;2022-08-25T06:53:08;101919.09;;;19.20;46.68
73415;BME280;61633;53.742;-2.990;2022-08-25T06:55:33;101920.05;;;19.19;46.61
73415;BME280;61633;53.742;-2.990;2022-08-25T06:57:59;101924.04;;;19.15;46.72
73415;BME280;61633;53.742;-2.990;2022-08-25T07:00:25;101923.18;;;19.60;46.22
73415;BME280;61633;53.742;-2.990;2022-08-25T07:02:50;101923.03;;;18.85;46.62
73415;BME280;61633;53.742;-2.990;2022-08-25T07:05:16;101930.61;;;18.71;46.93
73415;BME280;61633;53.742;-2.990;2022-08-25T07:07:41;101928.41;;;19.29;46.03
73415;BME280;61633;53.742;-2.990;2022-08-25T07:10:08;101939.59;;;18.95;46.82
73415;BME280;61633;53.742;-2.990;2022-08-25T07:12:32;101943.34;;;18.00;48.82
73415;BME280;61633;53.742;-2.990;2022-08-25T07:14:57;101941.13;;;19.00;47.67
73415;BME280;61633;53.742;-2.990;2022-08-25T07:17:23;101934.87;;;19.32;47.36
73415;BME280;61633;53.742;-2.990;2022-08-25T07:19:49;101935.95;;;19.11;46.80
73415;BME280;61633;53.742;-2.990;2022-08-25T07:22:14;101934.49;;;19.88;45.09
73415;BME280;61633;53.742;-2.990;2022-08-25T07:24:39;101934.72;;;19.36;45.84
73415;BME280;61633;53.742;-2.990;2022-08-25T07:27:05;101942.64;;;19.74;45.68
73415;BME280;61633;53.742;-2.990;2022-08-25T07:29:30;101950.20;;;19.46;46.59
73415;BME280;61633;53.742;-2.990;2022-08-25T07:31:56;101950.49;;;19.54;46.46
73415;BME280;61633;53.742;-2.990;2022-08-25T07:34:21;101955.13;;;19.18;46.72
73415;BME280;61633;53.742;-2.990;2022-08-25T07:36:47;101953.82;;;18.74;47.12
73415;BME280;61633;53.742;-2.990;2022-08-25T07:39:12;101951.14;;;19.57;45.62
73415;BME280;61633;53.742;-2.990;2022-08-25T07:41:39;101949.62;;;19.81;44.30
73415;BME280;61633;53.742;-2.990;2022-08-25T07:44:04;101953.99;;;19.68;45.69
73415;BME280;61633;53.742;-2.990;2022-08-25T07:46:29;101957.54;;;19.70;44.93
73415;BME280;61633;53.742;-2.990;2022-08-25T07:48:54;101960.83;;;20.06;45.53
73415;BME280;61633;53.742;-2.990;2022-08-25T07:51:20;101958.83;;;19.71;45.81
73415;BME280;61633;53.742;-2.990;2022-08-25T07:53:45;101963.88;;;19.87;45.52
73415;BME280;61633;53.742;-2.990;2022-08-25T07:56:12;101960.50;;;20.49;44.69
73415;BME280;61633;53.742;-2.990;2022-08-25T07:58:36;101965.87;;;19.41;45.19
73415;BME280;61633;53.742;-2.990;2022-08-25T08:01:02;101958.22;;;20.26;44.65
73415;BME280;61633;53.742;-2.990;2022-08-25T08:03:27;101961.22;;;19.91;44.85
73415;BME280;61633;53.742;-2.990;2022-08-25T08:05:52;101969.21;;;19.24;46.20
73415;BME280;61633;53.742;-2.990;2022-08-25T08:08:18;101967.34;;;19.89;45.13
73415;BME280;61633;53.742;-2.990;2022-08-25T08:10:44;101965.54;;;20.59;44.38
73415;BME280;61633;53.742;-2.990;2022-08-25T08:13:09;101968.87;;;20.50;44.64
73415;BME280;61633;53.742;-2.990;2022-08-25T08:15:34;101972.52;;;20.71;43.62
73415;BME280;61633;53.742;-2.990;2022-08-25T08:18:00;101978.25;;;20.77;43.82
73415;BME280;61633;53.742;-2.990;2022-08-25T08:20:26;101976.12;;;20.69;43.85
73415;BME280;61633;53.742;-2.990;2022-08-25T08:22:50;101979.52;;;20.81;44.23
73415;BME280;61633;53.742;-2.990;2022-08-25T08:25:17;101978.85;;;21.04;43.75
73415;BME280;61633;53.742;-2.990;2022-08-25T08:27:42;101980.26;;;20.66;43.74
73415;BME280;61633;53.742;-2.990;2022-08-25T08:30:08;101987.88;;;20.54;43.62
73415;BME280;61633;53.742;-2.990;2022-08-25T08:32:32;101989.80;;;20.92;43.48
73415;BME280;61633;53.742;-2.990;2022-08-25T08:34:58;101994.63;;;21.32;42.88
73415;BME280;61633;53.742;-2.990;2022-08-25T08:37:24;101995.86;;;21.39;43.17
73415;BME280;61633;53.742;-2.990;2022-08-25T08:39:49;101996.08;;;21.33;42.18
73415;BME280;61633;53.742;-2.990;2022-08-25T08:42:27;101999.00;;;20.61;44.34
73415;BME280;61633;53.742;-2.990;2022-08-25T08:44:48;102006.54;;;19.44;44.99
73415;BME280;61633;53.742;-2.990;2022-08-25T08:47:11;102011.82;;;19.95;44.51
73415;BME280;61633;53.742;-2.990;2022-08-25T08:49:36;102006.73;;;20.69;42.72
73415;BME280;61633;53.742;-2.990;2022-08-25T08:52:00;102011.17;;;21.26;42.37
73415;BME280;61633;53.742;-2.990;2022-08-25T08:54:24;102016.48;;;21.24;42.36
73415;BME280;61633;53.742;-2.990;2022-08-25T08:56:52;102020.53;;;20.50;41.50
73415;BME280;61633;53.742;-2.990;2022-08-25T08:59:16;102013.55;;;20.51;42.36
73415;BME280;61633;53.742;-2.990;2022-08-25T09:01:43;102019.95;;;20.14;42.50
73415;BME280;61633;53.742;-2.990;2022-08-25T09:04:08;102022.42;;;19.61;43.18
73415;BME280;61633;53.742;-2.990;2022-08-25T09:06:31;102026.21;;;19.64;43.39
73415;BME280;61633;53.742;-2.990;2022-08-25T09:08:56;102027.22;;;20.21;43.17
73415;BME280;61633;53.742;-2.990;2022-08-25T09:11:25;102026.99;;;19.78;44.66
73415;BME280;61633;53.742;-2.990;2022-08-25T09:13:58;102030.37;;;19.74;44.69
73415;BME280;61633;53.742;-2.990;2022-08-25T09:16:15;102023.84;;;19.60;44.57
73415;BME280;61633;53.742;-2.990;2022-08-25T09:18:43;102018.02;;;19.00;45.34
73415;BME280;61633;53.742;-2.990;2022-08-25T09:21:07;102024.42;;;19.32;44.90
73415;BME280;61633;53.742;-2.990;2022-08-25T09:23:33;102025.78;;;18.25;47.04
73415;BME280;61633;53.742;-2.990;2022-08-25T09:25:57;102017.07;;;18.68;46.75
73415;BME280;61633;53.742;-2.990;2022-08-25T09:28:20;102018.49;;;19.79;44.95
73415;BME280;61633;53.742;-2.990;2022-08-25T09:30:49;102016.67;;;19.18;46.24
73415;BME280;61633;53.742;-2.990;2022-08-25T09:33:09;102013.94;;;18.07;48.51
73415;BME280;61633;53.742;-2.990;2022-08-25T09:35:35;102013.38;;;17.75;49.23
73415;BME280;61633;53.742;-2.990;2022-08-25T09:38:01;102008.99;;;18.26;48.81
73415;BME280;61633;53.742;-2.990;2022-08-25T09:40:26;102006.49;;;18.47;48.98
73415;BME280;61633;53.742;-2.990;2022-08-25T09:42:51;102003.55;;;18.77;47.76
73415;BME280;61633;53.742;-2.990;2022-08-25T09:45:15;102007.64;;;19.19;47.08
73415;BME280;61633;53.742;-2.990;2022-08-25T09:47:43;102009.69;;;18.34;48.52
73415;BME280;61633;53.742;-2.990;2022-08-25T09:50:14;102000.64;;;18.90;48.15
73415;BME280;61633;53.742;-2.990;2022-08-25T09:52:35;102002.94;;;18.02;49.12
73415;BME280;61633;53.742;-2.990;2022-08-25T09:55:22;102002.68;;;19.13;47.20
73415;BME280;61633;53.742;-2.990;2022-08-25T09:57:32;101994.67;;;18.67;48.63
73415;BME280;61633;53.742;-2.990;2022-08-25T09:59:48;101996.34;;;18.55;47.70
73415;BME280;61633;53.742;-2.990;2022-08-25T10:02:20;101997.77;;;17.89;49.18
73415;BME280;61633;53.742;-2.990;2022-08-25T10:04:39;101992.69;;;18.14;49.26
73415;BME280;61633;53.742;-2.990;2022-08-25T10:09:33;101999.82;;;19.23;46.37
73415;BME280;61633;53.742;-2.990;2022-08-25T10:11:55;101993.72;;;18.72;47.50
73415;BME280;61633;53.742;-2.990;2022-08-25T10:14:27;101986.53;;;18.77;48.48
73415;BME280;61633;53.742;-2.990;2022-08-25T10:16:47;101990.24;;;19.01;47.26
73415;BME280;61633;53.742;-2.990;2022-08-25T10:19:13;101991.29;;;19.11;46.80
73415;BME280;61633;53.742;-2.990;2022-08-25T10:21:38;101990.27;;;18.85;47.11
73415;BME280;61633;53.742;-2.990;2022-08-25T10:24:03;101986.52;;;19.27;46.30
73415;BME280;61633;53.742;-2.990;2022-08-25T10:26:36;101982.50;;;19.09;46.46
73415;BME280;61633;53.742;-2.990;2022-08-25T10:29:04;101973.33;;;18.42;46.86
73415;BME280;61633;53.742;-2.990;2022-08-25T10:31:24;101967.10;;;18.71;46.57
73415;BME280;61633;53.742;-2.990;2022-08-25T10:33:53;101964.18;;;18.39;46.91
73415;BME280;61633;53.742;-2.990;2022-08-25T10:36:14;101966.71;;;18.86;45.91
73415;BME280;61633;53.742;-2.990;2022-08-25T10:38:38;101960.77;;;18.06;46.80
73415;BME280;61633;53.742;-2.990;2022-08-25T10:41:09;101956.53;;;20.04;44.78
73415;BME280;61633;53.742;-2.990;2022-08-25T10:43:31;101952.19;;;19.54;44.95
73415;BME280;61633;53.742;-2.990;2022-08-25T10:45:59;101959.21;;;19.11;45.84
73415;BME280;61633;53.742;-2.990;2022-08-25T10:48:30;101963.54;;;19.82;44.99
73415;BME280;61633;53.742;-2.990;2022-08-25T10:50:47;101963.38;;;20.35;43.47
73415;BME280;61633;53.742;-2.990;2022-08-25T10:53:16;101969.87;;;19.06;44.81
73415;BME280;61633;53.742;-2.990;2022-08-25T10:55:40;101954.95;;;19.04;45.00
73415;BME280;61633;53.742;-2.990;2022-08-25T10:58:03;101956.92;;;18.83;44.70
73415;BME280;61633;53.742;-2.990;2022-08-25T11:00:31;101968.67;;;18.99;45.06
73415;BME280;61633;53.742;-2.990;2022-08-25T11:02:59;101977.67;;;18.19;46.54
73415;BME280;61633;53.742;-2.990;2022-08-25T11:05:23;101967.88;;;18.42;46.18
73415;BME280;61633;53.742;-2.990;2022-08-25T11:07:43;101963.82;;;19.27;44.23
73415;BME280;61633;53.742;-2.990;2022-08-25T11:10:10;101958.08;;;18.60;45.37
73415;BME280;61633;53.742;-2.990;2022-08-25T11:12:36;101960.62;;;19.52;46.46
73415;BME280;61633;53.742;-2.990;2022-08-25T11:15:01;101953.03;;;18.67;45.03
73415;BME280;61633;53.742;-2.990;2022-08-25T11:17:25;101953.77;;;18.29;46.11
73415;BME280;61633;53.742;-2.990;2022-08-25T11:19:51;101948.77;;;18.28;46.32
73415;BME280;61633;53.742;-2.990;2022-08-25T11:22:19;101952.86;;;17.74;49.00
73415;BME280;61633;53.742;-2.990;2022-08-25T11:24:49;101953.38;;;17.77;48.69
73415;BME280;61633;53.742;-2.990;2022-08-25T11:27:07;101951.32;;;18.54;48.28
73415;BME280;61633;53.742;-2.990;2022-08-25T11:29:33;101955.37;;;18.24;48.22
73415;BME280;61633;53.742;-2.990;2022-08-25T11:31:58;101953.72;;;18.26;48.34
73415;BME280;61633;53.742;-2.990;2022-08-25T11:34:21;101947.96;;;18.75;46.96
73415;BME280;61633;53.742;-2.990;2022-08-25T11:36:51;101945.71;;;19.25;45.52
73415;BME280;61633;53.742;-2.990;2022-08-25T11:39:15;101944.41;;;18.83;45.38
73415;BME280;61633;53.742;-2.990;2022-08-25T11:41:46;101947.59;;;19.43;44.60
73415;BME280;61633;53.742;-2.990;2022-08-25T11:44:15;101951.66;;;19.07;46.51
73415;BME280;61633;53.742;-2.990;2022-08-25T11:46:42;101952.38;;;18.79;45.31
73415;BME280;61633;53.742;-2.990;2022-08-25T11:49:02;101950.88;;;18.92;45.23
73415;BME280;61633;53.742;-2.990;2022-08-25T11:51:30;101951.44;;;18.88;45.54
73415;BME280;61633;53.742;-2.990;2022-08-25T11:53:46;101947.51;;;19.08;46.24
73415;BME280;61633;53.742;-2.990;2022-08-25T11:56:11;101948.03;;;20.14;44.04
73415;BME280;61633;53.742;-2.990;2022-08-25T11:58:40;101951.00;;;19.35;44.50
73415;BME280;61633;53.742;-2.990;2022-08-25T12:01:03;101939.44;;;19.78;44.22
73415;BME280;61633;53.742;-2.990;2022-08-25T12:13:23;101932.46;;;20.22;41.24
73415;BME280;61633;53.742;-2.990;2022-08-25T12:18:11;101924.00;;;20.27;41.47
73415;BME280;61633;53.742;-2.990;2022-08-25T12:22:56;101933.36;;;19.80;42.42
73415;BME280;61633;53.742;-2.990;2022-08-25T12:25:26;101932.46;;;19.19;43.27
73415;BME280;61633;53.742;-2.990;2022-08-25T12:27:45;101938.10;;;19.28;43.55
73415;BME280;61633;53.742;-2.990;2022-08-25T12:30:14;101935.66;;;20.09;42.89
73415;BME280;61633;53.742;-2.990;2022-08-25T12:32:46;101934.31;;;20.34;41.95
73415;BME280;61633;53.742;-2.990;2022-08-25T12:35:12;101934.41;;;20.46;41.23
73415;BME280;61633;53.742;-2.990;2022-08-25T12:37:23;101943.28;;;19.92;41.91
73415;BME280;61633;53.742;-2.990;2022-08-25T12:39:56;101942.03;;;20.82;40.56
73415;BME280;61633;53.742;-2.990;2022-08-25T12:42:21;101949.02;;;20.81;42.07
73415;BME280;61633;53.742;-2.990;2022-08-25T12:44:42;101953.93;;;19.60;42.45
73415;BME280;61633;53.742;-2.990;2022-08-25T12:47:11;101949.83;;;20.97;40.52
73415;BME280;61633;53.742;-2.990;2022-08-25T12:49:32;101960.21;;;19.79;41.47